Time;durP1;ratioP1;P1;durP2;ratioP2;P2;SDS_P1;SDS_P2;PMS_P1;PMS_P2;Temp;Humidity;BMP_temperature;BMP_pressure;BME280_temperature;BME280_humidity;BME280_pressure;Samples;Min_cycle;Max_cycle;Signal;HPM_P1;HPM_P2
2022/10/25 00:00:10;;;;;;;;;;;15.90;99.90;16.20;99843.00;;;;334115;29;83517;-93
2022/10/25 00:00:22;;;;;;;;;;;15.90;99.90;16.20;99840.00;;;;336338;28;91805;-92
2022/10/25 00:00:35;;;;;;;;;;;15.90;99.90;16.20;99843.00;;;;336782;28;83260;-92
2022/10/25 00:00:46;;;;;;;;;;;15.90;99.90;16.20;99841.00;;;;334899;29;91589;-92
2022/10/25 00:00:58;;;;;;;;;;;15.90;99.90;16.20;99840.00;;;;332846;29;82634;-92
2022/10/25 00:01:29;;;;;;;;;;;15.90;99.90;16.20;99835.00;;;;333734;29;90926;-92
2022/10/25 00:01:44;;;;;;;;;;;15.90;99.90;16.20;99843.00;;;;335510;29;83457;-92
2022/10/25 00:01:56;;;;;;;;;;;15.90;99.90;16.10;99841.00;;;;336276;28;91419;-92
2022/10/25 00:02:18;;;;;;;;;;;15.90;99.90;16.10;99848.00;;;;334225;29;82647;-92
2022/10/25 00:02:33;;;;;;;;;;;15.90;99.90;16.10;99841.00;;;;336323;28;91925;-92
2022/10/25 00:02:45;;;;;;;;;;;15.90;99.90;16.10;99848.00;;;;335247;28;83508;-92
2022/10/25 00:02:57;;;;;;;;;;;15.90;99.90;16.10;99848.00;;;;334910;29;92374;-93
2022/10/25 00:03:09;;;;;;;;;;;15.90;99.90;16.00;99843.00;;;;336838;28;83411;-93
2022/10/25 00:03:21;;;;;;;;;;;15.90;99.90;16.00;99851.00;;;;334775;28;91667;-93
2022/10/25 00:03:33;;;;;;;;;;;15.90;99.90;16.00;99849.00;;;;336709;28;83571;-92
2022/10/25 00:03:45;;;;;;;;;;;15.90;99.90;16.00;99846.00;;;;336091;28;90259;-93
2022/10/25 00:03:56;;;;;;;;;;;15.90;99.90;16.00;99846.00;;;;336715;28;82608;-92
2022/10/25 00:04:11;;;;;;;;;;;15.90;99.90;16.00;99835.00;;;;337669;28;92298;-92
2022/10/25 00:04:23;;;;;;;;;;;15.90;99.90;16.00;99844.00;;;;336801;28;83406;-92
2022/10/25 00:04:35;;;;;;;;;;;15.90;99.90;16.00;99842.00;;;;336316;28;91526;-92
2022/10/25 00:04:46;;;;;;;;;;;15.90;99.90;16.00;99836.00;;;;336761;28;82737;-93
2022/10/25 00:04:59;;;;;;;;;;;15.90;99.90;16.00;99843.00;;;;334940;29;92713;-92
2022/10/25 00:05:14;;;;;;;;;;;15.90;99.90;16.10;99847.00;;;;334200;29;82463;-93
2022/10/25 00:05:26;;;;;;;;;;;15.90;99.90;16.10;99846.00;;;;337289;28;91907;-93
2022/10/25 00:05:38;;;;;;;;;;;15.90;99.90;16.00;99842.00;;;;338095;28;83422;-93
2022/10/25 00:05:50;;;;;;;;;;;15.90;99.90;16.00;99839.00;;;;335109;29;90210;-93
2022/10/25 00:06:01;;;;;;;;;;;15.90;99.90;16.00;99842.00;;;;335387;29;83519;-93
2022/10/25 00:06:13;;;;;;;;;;;15.80;99.90;16.00;99844.00;;;;334986;29;91445;-93
2022/10/25 00:06:25;;;;;;;;;;;15.90;99.90;16.00;99841.00;;;;338037;28;82797;-93
2022/10/25 00:06:37;;;;;;;;;;;15.90;99.90;16.00;99838.00;;;;337455;28;90986;-93
2022/10/25 00:06:49;;;;;;;;;;;15.80;99.90;16.00;99844.00;;;;336961;28;83568;-92
2022/10/25 00:07:00;;;;;;;;;;;15.90;99.90;16.10;99838.00;;;;337389;28;92878;-93
2022/10/25 00:07:12;;;;;;;;;;;15.80;99.90;16.10;99839.00;;;;335947;28;82714;-93
2022/10/25 00:07:24;;;;;;;;;;;15.80;99.90;16.00;99837.00;;;;335031;29;91910;-93
2022/10/25 00:07:36;;;;;;;;;;;15.80;99.90;16.10;99841.00;;;;334079;29;83269;-92
2022/10/25 00:07:47;;;;;;;;;;;15.80;99.90;16.20;99841.00;;;;333922;29;90331;-93
2022/10/25 00:08:00;;;;;;;;;;;15.80;99.90;16.20;99843.00;;;;338048;28;82559;-94
2022/10/25 00:08:11;;;;;;;;;;;15.80;99.90;16.20;99838.00;;;;336379;28;92355;-92
2022/10/25 00:08:23;;;;;;;;;;;15.90;99.90;16.20;99837.00;;;;335468;29;82642;-93
2022/10/25 00:08:35;;;;;;;;;;;15.90;99.90;16.30;99839.00;;;;335039;29;90501;-93
2022/10/25 00:08:47;;;;;;;;;;;15.90;99.90;16.20;99837.00;;;;335602;29;82607;-93
2022/10/25 00:08:59;;;;;;;;;;;15.90;99.90;16.30;99843.00;;;;336329;28;91851;-93
2022/10/25 00:09:11;;;;;;;;;;;15.90;99.90;16.20;99847.00;;;;337038;28;83389;-93
2022/10/25 00:09:23;;;;;;;;;;;15.90;99.90;16.20;99851.00;;;;333813;29;92256;-93
2022/10/25 00:09:35;;;;;;;;;;;15.90;99.90;16.20;99844.00;;;;334407;29;82648;-92
2022/10/25 00:09:47;;;;;;;;;;;15.90;99.90;16.00;99852.00;;;;334161;29;92005;-93
2022/10/25 00:09:59;;;;;;;;;;;15.90;99.90;16.00;99849.00;;;;334424;29;83946;-93
2022/10/25 00:10:11;;;;;;;;;;;15.90;99.90;16.00;99841.00;;;;333759;29;92035;-93
2022/10/25 00:10:23;;;;;;;;;;;15.90;99.90;16.00;99850.00;;;;335383;29;83631;-93
2022/10/25 00:10:36;;;;;;;;;;;15.90;99.90;16.10;99840.00;;;;335035;29;90925;-92
2022/10/25 00:10:48;;;;;;;;;;;15.90;99.90;16.10;99845.00;;;;334296;29;83327;-94
2022/10/25 00:11:00;;;;;;;;;;;15.90;99.90;16.10;99851.00;;;;333671;29;92056;-92
2022/10/25 00:11:24;;;;;;;;;;;15.90;99.90;16.10;99848.00;;;;336776;28;83370;-93
2022/10/25 00:11:36;;;;;;;;;;;15.90;99.90;16.10;99850.00;;;;333660;29;91399;-93
2022/10/25 00:11:48;;;;;;;;;;;15.90;99.90;16.10;99857.00;;;;332992;29;82540;-93
2022/10/25 00:12:00;;;;;;;;;;;15.90;99.90;16.10;99846.00;;;;330061;29;91242;-93
2022/10/25 00:12:11;;;;;;;;;;;15.90;99.90;16.20;99854.00;;;;334287;29;82579;-93
2022/10/25 00:12:23;;;;;;;;;;;15.90;99.90;16.20;99844.00;;;;333799;29;91837;-93
2022/10/25 00:12:40;;;;;;;;;;;15.80;99.90;16.20;99840.00;;;;333007;29;82614;-93
2022/10/25 00:12:52;;;;;;;;;;;15.90;99.90;16.20;99852.00;;;;335497;28;90617;-92
2022/10/25 00:13:04;;;;;;;;;;;15.90;99.90;16.20;99848.00;;;;334153;29;83493;-93
2022/10/25 00:13:16;;;;;;;;;;;15.90;99.90;16.10;99851.00;;;;334758;29;91177;-92
2022/10/25 00:13:28;;;;;;;;;;;15.90;99.90;16.10;99852.00;;;;336660;28;83337;-93
2022/10/25 00:13:40;;;;;;;;;;;15.90;99.90;16.20;99839.00;;;;333811;29;91711;-93
2022/10/25 00:13:53;;;;;;;;;;;15.90;99.90;16.20;99841.00;;;;335465;29;83451;-92
2022/10/25 00:14:05;;;;;;;;;;;15.90;99.90;16.20;99841.00;;;;336466;28;90295;-93
2022/10/25 00:14:19;;;;;;;;;;;15.90;99.90;16.30;99843.00;;;;335493;29;83364;-93
2022/10/25 00:14:31;;;;;;;;;;;15.90;99.90;16.30;99841.00;;;;335045;29;90345;-93
2022/10/25 00:14:43;;;;;;;;;;;15.90;99.90;16.20;99846.00;;;;332830;29;83726;-93
2022/10/25 00:14:54;;;;;;;;;;;15.90;99.90;16.20;99843.00;;;;333833;29;92094;-93
2022/10/25 00:15:07;;;;;;;;;;;15.90;99.90;16.30;99840.00;;;;334267;29;83558;-92
2022/10/25 00:15:19;;;;;;;;;;;15.90;99.90;16.20;99847.00;;;;333704;29;91646;-93
2022/10/25 00:15:33;;;;;;;;;;;15.90;99.90;16.20;99844.00;;;;332905;29;83579;-93
2022/10/25 00:15:44;;;;;;;;;;;15.90;99.90;16.30;99842.00;;;;333724;29;91819;-93
2022/10/25 00:15:56;;;;;;;;;;;15.90;99.90;16.40;99842.00;;;;335457;29;83644;-93
2022/10/25 00:16:15;;;;;;;;;;;15.90;99.90;16.20;99847.00;;;;333859;29;90966;-93
2022/10/25 00:16:29;;;;;;;;;;;15.90;99.90;16.10;99836.00;;;;334018;29;82485;-93
2022/10/25 00:16:41;;;;;;;;;;;15.90;99.90;16.10;99849.00;;;;336101;28;91127;-93
2022/10/25 00:16:53;;;;;;;;;;;15.90;99.90;16.10;99836.00;;;;336925;28;83607;-93
2022/10/25 00:17:05;;;;;;;;;;;15.90;99.90;16.10;99844.00;;;;332480;29;91848;-93
2022/10/25 00:17:17;;;;;;;;;;;15.90;99.90;16.10;99847.00;;;;334007;29;82627;-92
2022/10/25 00:17:29;;;;;;;;;;;15.90;99.90;16.20;99842.00;;;;335019;29;93034;-93
2022/10/25 00:17:42;;;;;;;;;;;15.90;99.90;16.20;99842.00;;;;334270;29;82511;-94
2022/10/25 00:17:54;;;;;;;;;;;15.90;99.90;16.30;99840.00;;;;336403;28;90748;-93
2022/10/25 00:18:05;;;;;;;;;;;15.90;99.90;16.40;99838.00;;;;335498;29;82594;-93
2022/10/25 00:18:17;;;;;;;;;;;15.90;99.90;16.30;99847.00;;;;336401;28;91633;-94
2022/10/25 00:18:29;;;;;;;;;;;15.90;99.90;16.20;99845.00;;;;334307;29;82460;-93
2022/10/25 00:18:41;;;;;;;;;;;15.90;99.90;16.10;99843.00;;;;333804;29;91772;-93
2022/10/25 00:18:53;;;;;;;;;;;15.90;99.90;16.10;99843.00;;;;334298;29;82325;-93
2022/10/25 00:19:04;;;;;;;;;;;15.90;99.90;16.20;99848.00;;;;331256;29;90536;-93
2022/10/25 00:19:16;;;;;;;;;;;15.90;99.90;16.10;99840.00;;;;334146;29;83929;-93
2022/10/25 00:19:28;;;;;;;;;;;15.90;99.90;16.10;99847.00;;;;332235;29;92424;-93
2022/10/25 00:19:40;;;;;;;;;;;15.90;99.90;16.10;99847.00;;;;334394;29;83462;-92
2022/10/25 00:19:52;;;;;;;;;;;15.90;99.90;16.10;99849.00;;;;336324;28;91186;-93
2022/10/25 00:20:04;;;;;;;;;;;15.90;99.90;16.00;99850.00;;;;335740;29;83295;-93
2022/10/25 00:20:16;;;;;;;;;;;15.90;99.90;16.20;99854.00;;;;335289;29;90583;-92
2022/10/25 00:20:28;;;;;;;;;;;15.90;99.90;16.10;99848.00;;;;334288;29;83267;-93
2022/10/25 00:20:39;;;;;;;;;;;15.90;99.90;16.00;99856.00;;;;333995;29;90399;-93
2022/10/25 00:20:51;;;;;;;;;;;15.90;99.90;16.00;99852.00;;;;332988;29;83293;-92
2022/10/25 00:21:04;;;;;;;;;;;15.90;99.90;16.00;99852.00;;;;335029;29;89385;-94
2022/10/25 00:21:15;;;;;;;;;;;15.90;99.90;16.00;99850.00;;;;334254;29;83501;-93
2022/10/25 00:21:27;;;;;;;;;;;15.90;99.90;16.00;99848.00;;;;335181;29;91541;-92
2022/10/25 00:21:39;;;;;;;;;;;15.90;99.90;16.00;99856.00;;;;336986;28;82923;-93
2022/10/25 00:21:51;;;;;;;;;;;15.90;99.90;16.00;99845.00;;;;332773;29;90879;-94
2022/10/25 00:22:03;;;;;;;;;;;15.90;99.90;16.00;99845.00;;;;333065;29;83587;-93
2022/10/25 00:22:15;;;;;;;;;;;15.90;99.90;16.00;99852.00;;;;333974;29;91373;-93
2022/10/25 00:22:29;;;;;;;;;;;15.90;99.90;16.00;99854.00;;;;339678;28;82433;-92
2022/10/25 00:22:41;;;;;;;;;;;15.90;99.90;16.00;99848.00;;;;336616;28;90697;-92
2022/10/25 00:22:53;;;;;;;;;;;15.80;99.90;16.00;99848.00;;;;335710;29;82491;-93
2022/10/25 00:23:05;;;;;;;;;;;15.80;99.90;16.00;99852.00;;;;338073;28;90030;-92
2022/10/25 00:23:17;;;;;;;;;;;15.90;99.90;16.00;99844.00;;;;338399;28;82915;-93
2022/10/25 00:23:30;;;;;;;;;;;15.80;99.90;16.00;99847.00;;;;336819;28;91769;-91
2022/10/25 00:23:41;;;;;;;;;;;15.90;99.90;16.00;99848.00;;;;338602;28;82195;-92
2022/10/25 00:23:53;;;;;;;;;;;15.80;99.90;16.00;99850.00;;;;336851;29;90143;-92
2022/10/25 00:24:06;;;;;;;;;;;15.80;99.90;16.00;99848.00;;;;335796;29;82734;-93
2022/10/25 00:24:17;;;;;;;;;;;15.90;99.90;16.00;99844.00;;;;338088;28;90617;-92
2022/10/25 00:24:29;;;;;;;;;;;15.80;99.90;16.10;99842.00;;;;337233;29;82507;-93
2022/10/25 00:24:41;;;;;;;;;;;15.80;99.90;16.10;99837.00;;;;335414;29;91065;-91
2022/10/25 00:24:53;;;;;;;;;;;15.90;99.90;16.20;99833.00;;;;338666;28;83158;-93
2022/10/25 00:25:05;;;;;;;;;;;15.90;99.90;16.20;99843.00;;;;336883;29;90030;-93
2022/10/25 00:25:17;;;;;;;;;;;15.80;99.90;16.20;99842.00;;;;337185;29;82471;-92
2022/10/25 00:25:29;;;;;;;;;;;15.80;99.90;16.10;99849.00;;;;335454;29;91955;-91
2022/10/25 00:25:41;;;;;;;;;;;15.90;99.90;16.00;99853.00;;;;337331;29;82384;-92
2022/10/25 00:26:00;;;;;;;;;;;15.80;99.90;15.90;99845.00;;;;336712;29;90659;-92
2022/10/25 00:26:12;;;;;;;;;;;15.80;99.90;15.90;99844.00;;;;335557;29;82541;-91
2022/10/25 00:26:24;;;;;;;;;;;15.80;99.90;16.00;99856.00;;;;336472;29;90258;-92
2022/10/25 00:26:36;;;;;;;;;;;15.80;99.90;16.00;99842.00;;;;339163;28;82518;-92
2022/10/25 00:26:47;;;;;;;;;;;15.90;99.90;16.00;99847.00;;;;340088;28;90893;-92
2022/10/25 00:26:59;;;;;;;;;;;15.90;99.90;16.00;99848.00;;;;339879;28;82564;-92
2022/10/25 00:27:11;;;;;;;;;;;15.80;99.90;16.10;99851.00;;;;339210;28;90450;-92
2022/10/25 00:27:23;;;;;;;;;;;15.80;99.90;16.10;99848.00;;;;339667;28;83436;-92
2022/10/25 00:27:34;;;;;;;;;;;15.80;99.90;16.00;99848.00;;;;337621;28;93021;-92
2022/10/25 00:27:46;;;;;;;;;;;15.80;99.90;16.00;99850.00;;;;342179;28;82517;-92
2022/10/25 00:27:58;;;;;;;;;;;15.80;99.90;16.00;99847.00;;;;338863;28;91615;-92
2022/10/25 00:28:10;;;;;;;;;;;15.80;99.90;16.00;99840.00;;;;340465;28;82514;-92
2022/10/25 00:28:21;;;;;;;;;;;15.80;99.90;16.00;99853.00;;;;341686;28;90749;-92
2022/10/25 00:28:33;;;;;;;;;;;15.80;99.90;15.90;99850.00;;;;340789;28;83178;-92
2022/10/25 00:28:45;;;;;;;;;;;15.80;99.90;15.90;99843.00;;;;340545;28;90685;-92
2022/10/25 00:28:57;;;;;;;;;;;15.80;99.90;15.90;99848.00;;;;339347;28;83257;-92
2022/10/25 00:29:09;;;;;;;;;;;15.80;99.90;15.90;99839.00;;;;339144;28;89915;-92
2022/10/25 00:29:21;;;;;;;;;;;15.80;99.90;15.80;99843.00;;;;338083;28;83232;-92
2022/10/25 00:29:32;;;;;;;;;;;15.80;99.90;15.80;99843.00;;;;336325;28;91190;-93
2022/10/25 00:29:44;;;;;;;;;;;15.80;99.90;15.80;99846.00;;;;339553;28;83356;-92
2022/10/25 00:29:56;;;;;;;;;;;15.80;99.90;15.90;99833.00;;;;338959;28;91658;-92
2022/10/25 00:30:08;;;;;;;;;;;15.80;99.90;15.90;99833.00;;;;340810;28;83407;-92
2022/10/25 00:30:22;;;;;;;;;;;15.80;99.90;15.90;99842.00;;;;340337;28;89993;-92
2022/10/25 00:30:33;;;;;;;;;;;15.80;99.90;15.90;99842.00;;;;339083;28;83516;-93
2022/10/25 00:30:45;;;;;;;;;;;15.80;99.90;16.00;99846.00;;;;338962;28;90774;-92
2022/10/25 00:31:07;;;;;;;;;;;15.80;99.90;15.90;99847.00;;;;338096;28;83539;-91
2022/10/25 00:31:19;;;;;;;;;;;15.80;99.90;15.80;99844.00;;;;340264;28;90664;-92
2022/10/25 00:31:31;;;;;;;;;;;15.80;99.90;15.80;99836.00;;;;340775;28;83275;-92
2022/10/25 00:31:42;;;;;;;;;;;15.80;99.90;15.80;99839.00;;;;337523;28;92161;-92
2022/10/25 00:31:54;;;;;;;;;;;15.70;99.90;15.90;99830.00;;;;339421;28;84164;-92
2022/10/25 00:32:06;;;;;;;;;;;15.80;99.90;15.90;99832.00;;;;340226;28;91480;-92
2022/10/25 00:32:18;;;;;;;;;;;15.80;99.90;16.00;99833.00;;;;341741;28;82533;-91
2022/10/25 00:32:30;;;;;;;;;;;15.70;99.90;15.90;99842.00;;;;340200;28;90985;-92
2022/10/25 00:32:41;;;;;;;;;;;15.70;99.90;16.00;99845.00;;;;338012;28;83550;-92
2022/10/25 00:32:53;;;;;;;;;;;15.80;99.90;16.00;99836.00;;;;339778;28;91374;-92
2022/10/25 00:33:05;;;;;;;;;;;15.80;99.90;16.00;99829.00;;;;338140;28;82562;-92
2022/10/25 00:33:17;;;;;;;;;;;15.80;99.90;15.90;99843.00;;;;337410;28;91184;-92
2022/10/25 00:33:31;;;;;;;;;;;15.70;99.90;15.90;99843.00;;;;337983;28;83315;-93
2022/10/25 00:33:43;;;;;;;;;;;15.80;99.90;15.90;99842.00;;;;336167;28;93152;-92
2022/10/25 00:33:55;;;;;;;;;;;15.80;99.90;15.90;99840.00;;;;340666;28;83450;-92
2022/10/25 00:34:07;;;;;;;;;;;15.80;99.90;16.00;99851.00;;;;339085;28;91327;-93
2022/10/25 00:34:19;;;;;;;;;;;15.80;99.90;15.90;99849.00;;;;342041;28;83409;-93
2022/10/25 00:34:30;;;;;;;;;;;15.70;99.90;15.90;99837.00;;;;338967;28;90389;-92
2022/10/25 00:34:43;;;;;;;;;;;15.70;99.90;15.90;99841.00;;;;339484;28;82568;-92
2022/10/25 00:34:55;;;;;;;;;;;15.70;99.90;15.90;99842.00;;;;338850;28;91188;-93
2022/10/25 00:35:07;;;;;;;;;;;15.70;99.90;15.90;99835.00;;;;339419;28;83443;-92
2022/10/25 00:35:20;;;;;;;;;;;15.80;99.90;15.90;99844.00;;;;337595;28;91885;-92
2022/10/25 00:35:34;;;;;;;;;;;15.70;99.90;15.90;99838.00;;;;338170;28;82396;-92
2022/10/25 00:35:46;;;;;;;;;;;15.70;99.90;15.90;99840.00;;;;337699;28;91794;-92
2022/10/25 00:36:06;;;;;;;;;;;15.70;99.90;15.90;99845.00;;;;338068;28;82552;-92
2022/10/25 00:36:22;;;;;;;;;;;15.70;99.90;15.90;99847.00;;;;340406;28;91620;-92
2022/10/25 00:36:34;;;;;;;;;;;15.70;99.90;15.90;99834.00;;;;339467;28;82589;-92
2022/10/25 00:36:45;;;;;;;;;;;15.70;99.90;15.90;99840.00;;;;340369;28;90829;-92
2022/10/25 00:36:57;;;;;;;;;;;15.70;99.90;15.90;99850.00;;;;339447;28;82505;-93
2022/10/25 00:37:09;;;;;;;;;;;15.70;99.90;15.90;99840.00;;;;337661;28;92066;-93
2022/10/25 00:37:21;;;;;;;;;;;15.70;99.90;15.90;99843.00;;;;337787;28;82632;-92
2022/10/25 00:37:34;;;;;;;;;;;15.70;99.90;15.90;99841.00;;;;340302;28;91527;-93
2022/10/25 00:37:46;;;;;;;;;;;15.70;99.90;16.00;99843.00;;;;339495;28;83409;-92
2022/10/25 00:37:59;;;;;;;;;;;15.70;99.90;15.90;99843.00;;;;337419;28;92078;-92
2022/10/25 00:38:11;;;;;;;;;;;15.70;99.90;15.90;99852.00;;;;340901;28;82488;-92
2022/10/25 00:38:23;;;;;;;;;;;15.70;99.90;15.90;99848.00;;;;340431;28;90055;-92
2022/10/25 00:38:34;;;;;;;;;;;15.70;99.90;16.00;99845.00;;;;339412;28;82565;-92
2022/10/25 00:38:46;;;;;;;;;;;15.70;99.90;15.90;99843.00;;;;340288;28;88567;-92
2022/10/25 00:38:58;;;;;;;;;;;15.70;99.90;15.90;99843.00;;;;340795;28;82534;-92
2022/10/25 00:39:10;;;;;;;;;;;15.70;99.90;16.00;99840.00;;;;340264;28;91577;-92
2022/10/25 00:39:22;;;;;;;;;;;15.70;99.90;16.00;99851.00;;;;337994;28;82476;-93
2022/10/25 00:39:34;;;;;;;;;;;15.70;99.90;16.10;99842.00;;;;339014;28;90237;-92
2022/10/25 00:39:46;;;;;;;;;;;15.70;99.90;16.10;99844.00;;;;340750;28;83337;-92
2022/10/25 00:39:57;;;;;;;;;;;15.70;99.90;16.20;99849.00;;;;338877;28;91300;-93
2022/10/25 00:40:10;;;;;;;;;;;15.70;99.90;16.20;99848.00;;;;339275;28;83469;-93
2022/10/25 00:40:21;;;;;;;;;;;15.70;99.90;16.10;99845.00;;;;338854;28;91410;-93
2022/10/25 00:40:34;;;;;;;;;;;15.80;99.90;16.10;99836.00;;;;340768;28;82441;-93
2022/10/25 00:40:45;;;;;;;;;;;15.80;99.90;16.20;99852.00;;;;338984;28;90432;-93
2022/10/25 00:40:57;;;;;;;;;;;15.70;99.90;16.30;99842.00;;;;339449;28;83521;-92
2022/10/25 00:41:09;;;;;;;;;;;15.80;99.90;16.30;99844.00;;;;337790;28;91581;-91
2022/10/25 00:41:22;;;;;;;;;;;15.80;99.90;16.30;99843.00;;;;339317;28;82887;-93
2022/10/25 00:41:34;;;;;;;;;;;15.80;99.90;16.20;99840.00;;;;339059;28;91833;-91
2022/10/25 00:41:46;;;;;;;;;;;15.80;99.90;16.20;99844.00;;;;340856;28;82594;-94
2022/10/25 00:41:58;;;;;;;;;;;15.80;99.90;16.10;99846.00;;;;337547;28;91655;-92
2022/10/25 00:42:13;;;;;;;;;;;15.80;99.90;16.00;99850.00;;;;338193;28;83263;-93
2022/10/25 00:42:27;;;;;;;;;;;15.80;99.90;16.10;99846.00;;;;338974;28;90883;-93
2022/10/25 00:42:39;;;;;;;;;;;15.80;99.90;16.10;99837.00;;;;338096;28;83244;-92
2022/10/25 00:42:51;;;;;;;;;;;15.80;99.90;16.00;99844.00;;;;340073;28;90650;-92
2022/10/25 00:43:03;;;;;;;;;;;15.80;99.90;16.00;99848.00;;;;339431;28;83424;-93
2022/10/25 00:43:37;;;;;;;;;;;15.80;99.90;15.90;99845.00;;;;338903;28;90015;-93
2022/10/25 00:43:50;;;;;;;;;;;15.80;99.90;15.90;99849.00;;;;342070;28;83402;-93
2022/10/25 00:44:39;;;;;;;;;;;15.80;99.90;15.90;99850.00;;;;339001;28;91648;-93
2022/10/25 00:44:55;;;;;;;;;;;15.80;99.90;15.90;99841.00;;;;339348;28;82490;-92
2022/10/25 00:45:26;;;;;;;;;;;15.70;99.90;15.90;99838.00;;;;338876;28;91934;-92
2022/10/25 00:45:37;;;;;;;;;;;15.70;99.90;16.00;99841.00;;;;339444;28;83395;-92
2022/10/25 00:45:49;;;;;;;;;;;15.70;99.90;16.00;99844.00;;;;338929;28;90624;-93
2022/10/25 00:46:04;;;;;;;;;;;15.70;99.90;16.00;99836.00;;;;339342;28;83490;-93
2022/10/25 00:46:19;;;;;;;;;;;15.70;99.90;15.90;99847.00;;;;336420;28;90670;-93
2022/10/25 00:46:31;;;;;;;;;;;15.70;99.90;15.90;99846.00;;;;338152;28;82376;-93
2022/10/25 00:46:42;;;;;;;;;;;15.70;99.90;16.00;99841.00;;;;339012;28;92040;-93
2022/10/25 00:46:54;;;;;;;;;;;15.70;99.90;16.00;99851.00;;;;340719;28;83625;-93
2022/10/25 00:47:21;;;;;;;;;;;15.70;99.90;16.00;99842.00;;;;340158;28;89659;-93
2022/10/25 00:47:43;;;;;;;;;;;15.70;99.90;15.90;99848.00;;;;339374;28;83471;-93
2022/10/25 00:47:57;;;;;;;;;;;15.60;99.90;15.80;99841.00;;;;338727;28;92259;-93
2022/10/25 00:48:09;;;;;;;;;;;15.60;99.90;15.90;99845.00;;;;338959;28;83498;-93
2022/10/25 00:48:20;;;;;;;;;;;15.60;99.90;15.80;99840.00;;;;338889;28;90825;-93
2022/10/25 00:48:32;;;;;;;;;;;15.60;99.90;15.80;99843.00;;;;338103;28;82560;-93
2022/10/25 00:49:02;;;;;;;;;;;15.60;99.90;15.70;99844.00;;;;340444;28;91714;-93
2022/10/25 00:49:16;;;;;;;;;;;15.60;99.90;15.80;99839.00;;;;340119;28;82445;-93
2022/10/25 00:49:28;;;;;;;;;;;15.60;99.90;15.90;99840.00;;;;338963;28;91134;-94
2022/10/25 00:49:39;;;;;;;;;;;15.60;99.90;15.90;99842.00;;;;339434;28;82568;-94
2022/10/25 00:49:56;;;;;;;;;;;15.60;99.90;15.90;99840.00;;;;338904;28;91895;-93
2022/10/25 00:50:14;;;;;;;;;;;15.60;99.90;15.90;99847.00;;;;338186;28;82477;-94
2022/10/25 00:50:39;;;;;;;;;;;15.60;99.90;15.80;99840.00;;;;338627;28;91551;-94
2022/10/25 00:50:51;;;;;;;;;;;15.60;99.90;15.70;99836.00;;;;340573;28;82465;-94
2022/10/25 00:51:03;;;;;;;;;;;15.60;99.90;15.70;99836.00;;;;337583;28;90796;-93
2022/10/25 00:51:15;;;;;;;;;;;15.60;99.90;15.70;99836.00;;;;338041;28;82506;-94
2022/10/25 00:51:42;;;;;;;;;;;15.60;99.90;15.80;99840.00;;;;339968;28;92018;-94
2022/10/25 00:51:58;;;;;;;;;;;15.60;99.90;15.70;99848.00;;;;337350;28;83414;-93
2022/10/25 00:52:10;;;;;;;;;;;15.60;99.90;15.70;99838.00;;;;337736;28;91908;-94
2022/10/25 00:52:22;;;;;;;;;;;15.60;99.90;15.70;99837.00;;;;339367;28;82576;-94
2022/10/25 00:52:34;;;;;;;;;;;15.60;99.90;15.70;99844.00;;;;337675;28;92009;-94
2022/10/25 00:52:47;;;;;;;;;;;15.60;99.90;15.70;99839.00;;;;336876;28;83493;-93
2022/10/25 00:53:07;;;;;;;;;;;15.60;99.90;15.70;99841.00;;;;340096;28;91803;-94
2022/10/25 00:53:24;;;;;;;;;;;15.60;99.90;15.60;99834.00;;;;340675;28;83484;-93
2022/10/25 00:53:36;;;;;;;;;;;15.50;99.90;15.60;99840.00;;;;337595;28;90403;-93
2022/10/25 00:53:47;;;;;;;;;;;15.60;99.90;15.60;99838.00;;;;339516;28;83388;-93
2022/10/25 00:53:59;;;;;;;;;;;15.50;99.90;15.70;99837.00;;;;336193;28;92188;-93
2022/10/25 00:54:12;;;;;;;;;;;15.50;99.90;15.70;99839.00;;;;339438;28;83374;-93
2022/10/25 00:54:27;;;;;;;;;;;15.50;99.90;15.90;99830.00;;;;338902;28;91947;-93
2022/10/25 00:54:42;;;;;;;;;;;15.50;99.90;16.00;99833.00;;;;337956;28;83483;-93
2022/10/25 00:54:54;;;;;;;;;;;15.50;99.90;15.90;99826.00;;;;339055;28;90176;-93
2022/10/25 00:55:06;;;;;;;;;;;15.60;99.90;15.90;99828.00;;;;339449;28;82481;-93
2022/10/25 00:55:18;;;;;;;;;;;15.60;99.90;15.90;99837.00;;;;337492;28;90933;-93
2022/10/25 00:55:30;;;;;;;;;;;15.60;99.90;15.90;99826.00;;;;339482;28;82403;-94
2022/10/25 00:55:44;;;;;;;;;;;15.60;99.90;16.00;99836.00;;;;337619;28;91425;-93
2022/10/25 00:56:01;;;;;;;;;;;15.60;99.90;15.90;99831.00;;;;337928;28;83493;-93
2022/10/25 00:56:15;;;;;;;;;;;15.60;99.90;15.80;99830.00;;;;337693;28;90687;-93
2022/10/25 00:56:29;;;;;;;;;;;15.60;99.90;15.90;99829.00;;;;338194;28;82479;-94
2022/10/25 00:56:41;;;;;;;;;;;15.60;99.90;15.80;99830.00;;;;337607;28;90489;-93
2022/10/25 00:56:53;;;;;;;;;;;15.60;99.90;15.80;99826.00;;;;338058;28;83502;-94
2022/10/25 00:57:12;;;;;;;;;;;15.60;99.90;15.80;99839.00;;;;340059;28;91494;-94
2022/10/25 00:57:45;;;;;;;;;;;15.60;99.90;15.80;99827.00;;;;342093;28;82507;-93
2022/10/25 00:58:07;;;;;;;;;;;15.60;99.90;15.70;99832.00;;;;338755;28;91636;-93
2022/10/25 00:58:21;;;;;;;;;;;15.60;99.90;15.80;99831.00;;;;339272;28;82796;-93
2022/10/25 00:58:33;;;;;;;;;;;15.60;99.90;15.70;99830.00;;;;339012;28;91031;-93
2022/10/25 00:58:46;;;;;;;;;;;15.50;99.90;15.70;99833.00;;;;337946;28;83746;-94
2022/10/25 00:59:00;;;;;;;;;;;15.60;99.90;15.80;99831.00;;;;334987;29;90957;-94
2022/10/25 00:59:14;;;;;;;;;;;15.60;99.90;15.80;99826.00;;;;337629;28;83680;-93
2022/10/25 00:59:25;;;;;;;;;;;15.60;99.90;15.80;99820.00;;;;340364;28;90724;-94
2022/10/25 00:59:37;;;;;;;;;;;15.50;99.90;15.80;99826.00;;;;338124;28;83308;-93
2022/10/25 00:59:49;;;;;;;;;;;15.50;99.90;15.70;99828.00;;;;337648;28;91009;-93
2022/10/25 01:00:01;;;;;;;;;;;15.60;99.90;15.70;99834.00;;;;340676;28;83571;-93
2022/10/25 01:00:13;;;;;;;;;;;15.50;99.90;15.80;99825.00;;;;336157;28;93019;-93
2022/10/25 01:00:25;;;;;;;;;;;15.50;99.90;15.70;99830.00;;;;336542;28;82583;-93
2022/10/25 01:00:37;;;;;;;;;;;15.60;99.90;15.70;99830.00;;;;340212;28;90665;-93
2022/10/25 01:00:49;;;;;;;;;;;15.50;99.90;15.70;99825.00;;;;341951;28;83407;-94
2022/10/25 01:01:02;;;;;;;;;;;15.50;99.90;15.70;99828.00;;;;337509;28;91779;-94
2022/10/25 01:01:14;;;;;;;;;;;15.50;99.90;15.70;99817.00;;;;340577;28;83406;-93
2022/10/25 01:01:26;;;;;;;;;;;15.50;99.90;15.80;99827.00;;;;337593;28;91625;-93
2022/10/25 01:01:38;;;;;;;;;;;15.50;99.90;15.70;99823.00;;;;339178;28;83535;-92
2022/10/25 01:01:53;;;;;;;;;;;15.50;99.90;15.70;99825.00;;;;340324;28;90795;-93
2022/10/25 01:02:05;;;;;;;;;;;15.50;99.90;15.70;99826.00;;;;340480;28;83566;-93
2022/10/25 01:02:17;;;;;;;;;;;15.50;99.90;15.70;99826.00;;;;338765;28;92027;-93
2022/10/25 01:02:29;;;;;;;;;;;15.50;99.90;15.60;99827.00;;;;337966;28;83561;-93
2022/10/25 01:02:41;;;;;;;;;;;15.50;99.90;15.60;99826.00;;;;338831;28;92416;-93
2022/10/25 01:02:52;;;;;;;;;;;15.50;99.90;15.70;99821.00;;;;338025;28;83395;-93
2022/10/25 01:03:05;;;;;;;;;;;15.50;99.90;15.70;99828.00;;;;340114;28;90595;-93
2022/10/25 01:03:17;;;;;;;;;;;15.50;99.90;15.80;99809.00;;;;337972;28;83439;-93
2022/10/25 01:03:28;;;;;;;;;;;15.50;99.90;15.90;99821.00;;;;340389;28;91283;-93
2022/10/25 01:03:40;;;;;;;;;;;15.50;99.90;15.80;99811.00;;;;337235;28;82630;-93
2022/10/25 01:03:53;;;;;;;;;;;15.50;99.90;15.80;99826.00;;;;338931;28;91621;-93
2022/10/25 01:04:06;;;;;;;;;;;15.50;99.90;15.80;99821.00;;;;339368;28;82519;-93
2022/10/25 01:04:18;;;;;;;;;;;15.50;99.90;15.90;99822.00;;;;337490;28;92487;-93
2022/10/25 01:04:30;;;;;;;;;;;15.50;99.90;15.90;99821.00;;;;336846;28;82527;-93
2022/10/25 01:04:41;;;;;;;;;;;15.50;99.90;15.80;99812.00;;;;341420;28;90745;-93
2022/10/25 01:04:53;;;;;;;;;;;15.50;99.90;15.80;99812.00;;;;339229;28;83203;-93
2022/10/25 01:05:06;;;;;;;;;;;15.50;99.90;15.80;99819.00;;;;338884;28;91948;-92
2022/10/25 01:05:18;;;;;;;;;;;15.50;99.90;15.80;99811.00;;;;341989;28;82674;-93